Chautauqua County-Jamestown Airport
KJHW : now visible

Airfield :











YOU CAN JOIN US ON...

 
LOGIN :

Register | Disclaimer

   EN    FR    IT 

 









Legend :    VFR   Marginal VFR   IFR   Intensive IFR   Very Intensive IFR
Visi :
Ceiling :
>= 8 km
>= 3000ft
5 to 8 km
1000 to 3000 ft
1500m to 5 km
500 to 1000 ft
800 to 1500m
200 to 500 ft
< 800m
< 200 ft
Symbols :   Thunderstorms  Fog  Heavy snow  Heavy precipitations  Wind > 20 kt






- Airport Elevation : 1723 ft


KJHW - Chautauqua County-Jamestown

CURRENT METAR :
  • 260617Z AUTO 00000KT 1/4SM FG VV002 13/13 A2994 RMK AO2 RVRNO

EXPIRED METARs :
  • 260556Z AUTO 02003KT 9SM CLR 14/14 A2993 RMK AO2 SLP139 T01440144 10200 20139 50003
  • 260534Z AUTO 31004KT 2 1/2SM BR FEW001 14/14 A2993 RMK AO2
  • 260524Z AUTO 26004KT 3/4SM BR VV001 14/14 A2993 RMK AO2 RVRNO
  • 260522Z AUTO 26004KT 2SM BR FEW001 14/14 A2993 RMK AO2
  • 260456Z AUTO 28003KT 7SM CLR 15/15 A2993 RMK AO2 SLP137 T01500150 402280106
  • 260430Z AUTO 00000KT 4SM BR CLR 16/16 A2993 RMK AO2
  • 260409Z AUTO 00000KT 1SM BR CLR 16/16 A2993 RMK AO2 VIS 1/4V5 RVRNO
  • 260356Z AUTO 00000KT 9SM CLR 16/16 A2993 RMK AO2 SLP132 T01560156
  • 260308Z AUTO 00000KT 3SM BR FEW002 16/16 A2993 RMK AO2
  • 260301Z AUTO 00000KT 3/4SM BR VV002 16/16 A2992 RMK AO2 VIS 1/4V5 RVRNO
  • 260244Z AUTO 00000KT 1/2SM FG VV002 16/16 A2992 RMK AO2 VIS M1/4V5 RVRNO
  • 260237Z AUTO 00000KT 3/4SM BR CLR 16/16 A2992 RMK AO2 VIS 1/4V5 RVRNO
  • 260156Z AUTO 02003KT 9SM FEW014 17/17 A2991 RMK AO2 SLP125 T01720172
  • 260146Z AUTO 02004KT 10SM SCT012 17/17 A2990 RMK AO2

TAF KJHW
Valid from the 26 at 03:00 until the 27 at 00:00 UTC


260247Z 2603/2624 VRB03KT 3SM BR SCT012
TEMPO 2603/2607 1/2SM FG VV002
FM260700 VRB03KT 1/2SM FG VV002
FM261300 VRB03KT 2SM BR SCT012
FM261400 09005KT P6SM SCT250
FM261700 12006KT P6SM FEW250
KZOB FIR / North America



MET'MAP, your aeronautical weather chart ! - Copyright ORBIFLY December 2007 - Disclaimer

ORBIFLY MET'MAP TEAM :

Programming & Development : Alexandra Zaïnal
Original concept : Baudouin d'Aumeries
Technical & hardware support : Manuel Goepfert
Assistance : Marc-Olivier Méhu




SOURCES & CREDITS :

   NOAA       Earth
Advisory